Rutland, VT

7:15 AM EST on March 04, 2015 (GMT -0500)
NWS CO-OP RUTV1 | Change Station
CLOSE
Current Station
Personal Weather Station
Location: Rutland, VT
Elevation: 620 ft
Nearby Weather Stations

Elev 620 ft 43.63 °N, 72.98 °W | Updated 7 minutes ago

Overcast
Overcast
33.8 °F
Feels Like 34 °F
N
0.0
Wind Variable Wind from North
Gusts 3.0 mph

Today
High -- | Low -- °F
--% Chance of Precip.
Yesterday
High -- | Low -- °F
Precip. -- in
6:23 AM 5:44 PM
Waxing Gibbous, 99% visible
Pressure 29.68 in
Visibility 10.0 miles
Clouds Overcast 2000 ft
Windchill 34 °F
Dew Point 30 °F
Humidity 85%
Rainfall 0.00 in
Snow Depth Not available.
UV 0 out of 12
Pollen .40 out of 12
Air Quality Not available.
Flu Activity Not available.
METAR KRUT 041155Z 33003KT 10SM OVC020 01/M02 A2968 RMK AO1 70001 10020 21020 52017

More Conditions Fewer Conditions

Pressure 29.68 in
Visibility 10.0 miles
Clouds Overcast 2000 ft
Windchill 34 °F
Dew Point 30 °F
Humidity 85%
Rainfall 0.00 in
Snow Depth Not available.
UV 0 out of 12
Pollen .40 out of 12
Air Quality Not available.
Flu Activity Not available.
METAR KRUT 041155Z 33003KT 10SM OVC020 01/M02 A2968 RMK AO1 70001 10020 21020 52017

More Conditions Fewer Conditions

10-Day Weather Forecast

Almanac

Astronomy

Mar. 04, 2015 Rise Set
Actual Time
Civil Twilight
Nautical Twilight
Astronomical Twilight
Moon
Length of Visible Light
Length of Day
Tomorrow will be .
, % of the Moon is Illuminated

Today's Extremes

State Highs State Lows

Community

WunderPhotos

Upload Photos

1,802,437 photos uploaded!

WunderBlogs® & News

Nearby

Air Quality

  Air Quality AQ Index Pollutant
Not available.

Snow Depth

Station Depth Elevation

Earthquake Activity

City Distance Mag. Time & Date
Minimum magnitude displayed is 2.5.

Coastal Water Temperatures

Place Temperature

Nearby Weather Stations